createdAt,value
2022-10-15T00:00:36.177Z,5.17
2022-10-15T00:01:41.751Z,5.16
2022-10-15T00:02:45.678Z,5.16
2022-10-15T00:03:49.686Z,5.14
2022-10-15T00:04:53.652Z,5.12
2022-10-15T00:05:57.515Z,5.13
2022-10-15T00:07:02.734Z,5.12
2022-10-15T00:08:08.353Z,5.10
2022-10-15T00:11:22.325Z,5.07
2022-10-15T00:14:07.647Z,5.03
2022-10-15T00:15:12.072Z,5.01
2022-10-15T00:16:20.701Z,5.00
2022-10-15T00:17:24.940Z,5.00
2022-10-15T00:18:29.362Z,5.00
2022-10-15T00:19:33.379Z,4.97
2022-10-15T00:20:40.212Z,4.96
2022-10-15T00:21:44.064Z,4.96
2022-10-15T00:22:47.948Z,4.96
2022-10-15T00:23:52.367Z,4.93
2022-10-15T00:24:56.233Z,4.93
2022-10-15T00:26:08.143Z,4.91
2022-10-15T00:27:12.090Z,4.87
2022-10-15T00:28:17.706Z,4.87
2022-10-15T00:29:21.694Z,4.86
2022-10-15T00:30:25.632Z,4.85
2022-10-15T00:31:32.629Z,4.84
2022-10-15T00:32:38.147Z,4.85
2022-10-15T00:33:43.145Z,4.85
2022-10-15T00:34:47.548Z,4.84
2022-10-15T00:36:01.609Z,4.84
2022-10-15T00:37:05.513Z,4.84
2022-10-15T00:38:09.475Z,4.84
2022-10-15T00:39:13.330Z,4.83
2022-10-15T00:40:17.406Z,4.82
2022-10-15T00:41:27.116Z,4.82
2022-10-15T00:42:32.013Z,4.80
2022-10-15T00:43:44.901Z,4.78
2022-10-15T00:44:54.490Z,4.77
2022-10-15T00:46:02.676Z,4.76
2022-10-15T00:47:25.269Z,4.75
2022-10-15T00:48:34.055Z,4.73
2022-10-15T00:49:46.480Z,4.70
2022-10-15T00:50:51.804Z,4.71
2022-10-15T00:52:04.735Z,4.71
2022-10-15T00:53:10.454Z,4.70
2022-10-15T00:54:16.155Z,4.69
2022-10-15T00:55:35.206Z,4.69
2022-10-15T00:56:42.077Z,4.68
2022-10-15T00:57:49.071Z,4.67
2022-10-15T00:58:55.834Z,4.68
2022-10-15T01:00:02.921Z,4.66
2022-10-15T01:01:06.888Z,4.65
2022-10-15T01:02:13.353Z,4.64
2022-10-15T01:03:17.277Z,4.64
2022-10-15T01:04:22.562Z,4.62
2022-10-15T01:05:27.260Z,4.58
2022-10-15T01:06:35.341Z,4.59
2022-10-15T01:07:39.238Z,4.59
2022-10-15T01:08:43.348Z,4.56
2022-10-15T01:09:47.439Z,4.57
2022-10-15T01:11:29.346Z,4.55
2022-10-15T01:12:47.865Z,4.53
2022-10-15T01:13:56.371Z,4.52
2022-10-15T01:15:18.250Z,4.52
2022-10-15T01:16:46.144Z,4.47
2022-10-15T01:17:53.000Z,4.45
2022-10-15T01:19:02.844Z,4.44
2022-10-15T01:20:29.844Z,4.42
2022-10-15T01:21:36.560Z,4.38
2022-10-15T01:22:52.167Z,4.38
2022-10-15T01:24:08.182Z,4.34
2022-10-15T01:25:40.570Z,4.30
2022-10-15T01:26:56.215Z,4.30
2022-10-15T01:28:18.256Z,4.27
2022-10-15T01:29:58.326Z,4.25
2022-10-15T01:31:05.266Z,4.25
2022-10-15T01:32:18.126Z,4.21
2022-10-15T01:33:50.461Z,4.19
2022-10-15T01:34:59.969Z,4.17
2022-10-15T01:36:09.647Z,4.14
2022-10-15T01:37:16.540Z,4.13
2022-10-15T01:38:23.420Z,4.12
2022-10-15T01:39:31.925Z,4.11
2022-10-15T01:40:38.901Z,4.11
2022-10-15T01:41:48.564Z,4.11
2022-10-15T01:42:55.415Z,4.09
2022-10-15T01:44:05.017Z,4.09
2022-10-15T01:45:11.973Z,4.09
2022-10-15T01:46:19.062Z,4.10
2022-10-15T01:47:33.806Z,4.10
2022-10-15T01:48:37.587Z,3.93
2022-10-15T01:49:44.238Z,4.05
2022-10-15T01:50:51.165Z,4.06
2022-10-15T01:51:59.767Z,4.04
2022-10-15T01:53:06.986Z,4.01
2022-10-15T01:54:15.486Z,4.01
2022-10-15T01:55:20.999Z,3.99
2022-10-15T01:56:27.072Z,4.00
2022-10-15T01:57:33.319Z,3.99
2022-10-15T01:58:40.194Z,4.01
2022-10-15T01:59:45.892Z,4.00
2022-10-15T02:00:51.783Z,4.00
2022-10-15T02:01:58.135Z,4.02
2022-10-15T02:03:04.161Z,4.03
2022-10-15T02:04:21.535Z,4.03
2022-10-15T02:05:28.402Z,4.03
2022-10-15T02:06:35.331Z,4.04
2022-10-15T02:08:00.412Z,3.15
2022-10-15T02:09:10.128Z,4.01
2022-10-15T02:10:35.171Z,4.04
2022-10-15T02:11:58.336Z,4.04
2022-10-15T02:13:38.010Z,4.06
2022-10-15T02:14:55.301Z,4.09
2022-10-15T02:16:02.158Z,4.09
2022-10-15T02:17:10.230Z,4.10
2022-10-15T02:18:18.403Z,4.13
2022-10-15T02:19:35.888Z,4.16
2022-10-15T02:21:00.297Z,4.19
2022-10-15T02:22:12.955Z,4.24
2022-10-15T02:23:27.101Z,4.25
2022-10-15T02:24:28.466Z,4.29
2022-10-15T02:25:35.861Z,4.31
2022-10-15T02:26:43.097Z,4.34
2022-10-15T02:27:49.616Z,4.36
2022-10-15T02:28:56.689Z,4.39
2022-10-15T02:30:06.577Z,4.43
2022-10-15T02:31:15.460Z,4.45
2022-10-15T02:32:22.169Z,4.49
2022-10-15T02:33:29.894Z,4.50
2022-10-15T02:34:36.150Z,4.53
2022-10-15T02:35:43.951Z,4.55
2022-10-15T02:36:56.694Z,4.56
2022-10-15T02:38:03.657Z,4.58
2022-10-15T02:39:11.137Z,4.59
2022-10-15T02:40:15.805Z,4.61
2022-10-15T02:41:19.913Z,4.63
2022-10-15T02:42:24.176Z,4.66
2022-10-15T02:43:28.379Z,4.68
2022-10-15T02:44:32.415Z,4.69
2022-10-15T02:45:38.427Z,4.70
2022-10-15T02:46:42.801Z,4.70
2022-10-15T02:47:46.743Z,4.69
2022-10-15T02:48:50.691Z,4.71
2022-10-15T02:49:54.559Z,4.71
2022-10-15T02:50:58.496Z,4.70
2022-10-15T02:52:02.423Z,4.70
2022-10-15T02:53:06.415Z,4.69
2022-10-15T02:54:10.387Z,4.69
2022-10-15T02:55:14.321Z,4.69
2022-10-15T02:56:18.369Z,4.69
2022-10-15T02:57:22.620Z,4.71
2022-10-15T02:58:26.770Z,4.71
2022-10-15T02:59:30.693Z,4.71
2022-10-15T03:00:34.740Z,4.73
2022-10-15T03:01:39.050Z,4.73
2022-10-15T03:02:42.981Z,4.71
2022-10-15T03:03:46.931Z,4.71
2022-10-15T03:04:50.809Z,4.71
2022-10-15T03:05:54.712Z,4.68
2022-10-15T03:06:58.656Z,4.68
2022-10-15T03:08:02.674Z,4.64
2022-10-15T03:09:06.653Z,4.47
2022-10-15T03:10:12.176Z,4.61
2022-10-15T03:11:16.039Z,4.61
2022-10-15T03:12:19.899Z,4.59
2022-10-15T03:13:25.165Z,4.60
2022-10-15T03:15:34.658Z,4.59
2022-10-15T03:16:40.208Z,4.58
2022-10-15T03:17:44.145Z,4.57
2022-10-15T03:18:48.146Z,4.57
2022-10-15T03:19:52.106Z,4.56
2022-10-15T03:20:57.274Z,4.54
2022-10-15T03:22:01.142Z,4.51
2022-10-15T03:23:05.017Z,4.51
2022-10-15T03:24:10.501Z,4.48
2022-10-15T03:25:17.069Z,4.47
2022-10-15T03:26:21.026Z,4.47
2022-10-15T03:27:25.350Z,4.43
2022-10-15T03:28:29.655Z,4.44
2022-10-15T03:29:33.675Z,4.39
2022-10-15T03:30:37.743Z,4.34
2022-10-15T03:31:41.590Z,4.34
2022-10-15T03:32:52.340Z,4.31
2022-10-15T03:33:52.743Z,4.25
2022-10-15T03:34:59.323Z,4.26
2022-10-15T03:36:05.033Z,4.23
2022-10-15T03:37:08.978Z,4.23
2022-10-15T03:38:12.889Z,4.23
2022-10-15T03:39:16.729Z,4.20
2022-10-15T03:40:20.697Z,4.20
2022-10-15T03:41:24.663Z,4.19
2022-10-15T03:42:28.511Z,4.19
2022-10-15T03:43:36.363Z,4.18
2022-10-15T03:44:39.537Z,4.18
2022-10-15T03:45:43.373Z,4.18
2022-10-15T03:46:47.334Z,4.15
2022-10-15T03:47:51.434Z,4.15
2022-10-15T03:48:55.299Z,4.11
2022-10-15T03:50:00.761Z,4.10
2022-10-15T03:51:04.850Z,3.91
2022-10-15T03:52:08.762Z,4.09
2022-10-15T03:53:13.062Z,4.09
2022-10-15T03:54:17.042Z,4.06
2022-10-15T03:55:20.887Z,4.04
2022-10-15T03:56:24.861Z,4.02
2022-10-15T03:57:28.879Z,4.02
2022-10-15T03:58:33.184Z,4.02
2022-10-15T03:59:38.705Z,4.04
2022-10-15T04:00:44.275Z,3.13
2022-10-15T04:01:48.257Z,4.03
2022-10-15T04:02:52.110Z,4.02
2022-10-15T04:03:56.045Z,4.02
2022-10-15T04:04:59.896Z,4.03
2022-10-15T04:06:03.913Z,4.02
2022-10-15T04:07:08.805Z,4.02
2022-10-15T04:08:27.435Z,4.03
2022-10-15T04:09:27.964Z,4.04
2022-10-15T04:10:30.347Z,4.04
2022-10-15T04:11:34.381Z,4.04
2022-10-15T04:12:38.411Z,4.05
2022-10-15T04:13:42.252Z,4.03
2022-10-15T04:14:47.676Z,4.04
2022-10-15T04:15:51.528Z,4.03
2022-10-15T04:16:58.707Z,4.03
2022-10-15T04:18:04.516Z,4.03
2022-10-15T04:19:11.018Z,4.02
2022-10-15T04:20:14.152Z,4.03
2022-10-15T04:21:17.988Z,4.04
2022-10-15T04:22:22.222Z,4.02
2022-10-15T04:23:28.691Z,4.00
2022-10-15T04:24:34.157Z,4.02
2022-10-15T04:25:41.194Z,4.02
2022-10-15T04:26:45.597Z,4.03
2022-10-15T04:27:50.990Z,4.03
2022-10-15T04:28:54.924Z,4.04
2022-10-15T04:29:58.812Z,4.03
2022-10-15T04:31:04.261Z,4.04
2022-10-15T04:32:08.137Z,4.05
2022-10-15T04:33:11.984Z,4.08
2022-10-15T04:34:17.122Z,4.07
2022-10-15T04:35:21.323Z,4.07
2022-10-15T04:36:28.127Z,4.09
2022-10-15T04:37:34.292Z,4.08
2022-10-15T04:38:39.910Z,4.08
2022-10-15T04:39:43.886Z,4.10
2022-10-15T04:40:49.432Z,4.11
2022-10-15T04:41:53.449Z,4.17
2022-10-15T04:42:57.320Z,4.22
2022-10-15T04:44:01.318Z,4.28
2022-10-15T04:45:07.146Z,4.34
2022-10-15T04:46:12.831Z,4.41
2022-10-15T04:47:18.061Z,4.44
2022-10-15T04:48:22.020Z,4.48
2022-10-15T04:49:25.878Z,4.51
2022-10-15T04:50:29.840Z,4.53
2022-10-15T04:51:33.758Z,4.55
2022-10-15T04:52:37.691Z,4.56
2022-10-15T04:53:44.065Z,4.57
2022-10-15T04:54:48.013Z,4.60
2022-10-15T04:55:51.888Z,4.60
2022-10-15T04:56:55.820Z,4.58
2022-10-15T04:57:59.753Z,4.26
2022-10-15T04:59:06.700Z,4.26
2022-10-15T05:00:12.650Z,4.61
2022-10-15T05:01:19.316Z,4.59
2022-10-15T05:02:24.858Z,4.59
2022-10-15T05:03:29.520Z,4.58
2022-10-15T05:04:33.879Z,4.58
2022-10-15T05:05:37.777Z,4.57
2022-10-15T05:06:43.275Z,4.59
2022-10-15T05:07:49.133Z,4.61
2022-10-15T05:08:55.955Z,4.60
2022-10-15T05:09:59.833Z,4.61
2022-10-15T05:11:08.737Z,4.62
2022-10-15T05:12:12.687Z,4.64
2022-10-15T05:13:18.192Z,4.65
2022-10-15T05:14:23.944Z,4.65
2022-10-15T05:15:27.874Z,4.72
2022-10-15T05:16:36.505Z,4.74
2022-10-15T05:17:40.418Z,4.77
2022-10-15T05:18:46.035Z,4.81
2022-10-15T05:19:49.920Z,4.84
2022-10-15T05:20:55.400Z,4.85
2022-10-15T05:21:59.289Z,4.90
2022-10-15T05:23:03.207Z,4.92
2022-10-15T05:24:09.254Z,4.92
2022-10-15T05:25:13.117Z,4.97
2022-10-15T05:26:21.643Z,4.97
2022-10-15T05:27:25.517Z,5.04
2022-10-15T05:28:29.652Z,5.09
2022-10-15T05:29:33.543Z,5.13
2022-10-15T05:30:37.484Z,5.16
2022-10-15T05:31:41.439Z,5.20
2022-10-15T05:32:46.914Z,5.24
2022-10-15T05:33:52.369Z,5.28
2022-10-15T05:35:11.479Z,5.32
2022-10-15T05:36:16.930Z,5.39
2022-10-15T05:37:21.044Z,5.47
2022-10-15T05:38:30.585Z,5.47
2022-10-15T05:39:39.356Z,5.61
2022-10-15T05:40:39.871Z,5.67
2022-10-15T05:41:43.735Z,5.74
2022-10-15T05:42:50.722Z,5.80
2022-10-15T05:43:56.399Z,5.86
2022-10-15T05:45:00.309Z,5.92
2022-10-15T05:46:08.249Z,5.09
2022-10-15T05:47:13.735Z,6.06
2022-10-15T05:48:19.192Z,6.11
2022-10-15T05:49:23.055Z,6.16
2022-10-15T05:50:28.552Z,6.22
2022-10-15T05:51:32.400Z,6.27
2022-10-15T05:52:37.578Z,6.32
2022-10-15T05:53:43.217Z,6.35
2022-10-15T05:54:47.066Z,6.38
2022-10-15T05:55:53.947Z,6.43
2022-10-15T05:57:04.463Z,6.43
2022-10-15T05:58:05.590Z,6.52
2022-10-15T05:59:11.773Z,6.60
2022-10-15T06:00:17.400Z,6.87
2022-10-15T06:01:21.344Z,7.02
2022-10-15T06:02:25.488Z,7.14
2022-10-15T06:03:30.649Z,7.28
2022-10-15T06:04:36.086Z,7.39
2022-10-15T06:05:41.934Z,7.54
2022-10-15T06:06:45.957Z,7.66
2022-10-15T06:07:49.871Z,7.78
2022-10-15T06:08:54.966Z,7.91
2022-10-15T06:09:58.834Z,8.04
2022-10-15T06:11:06.875Z,8.16
2022-10-15T06:12:11.341Z,8.28
2022-10-15T06:13:16.797Z,8.38
2022-10-15T06:14:25.600Z,8.46
2022-10-15T06:15:26.484Z,8.57
2022-10-15T06:16:30.410Z,8.43
2022-10-15T06:17:34.278Z,8.72
2022-10-15T06:18:38.771Z,8.78
2022-10-15T06:19:42.749Z,8.85
2022-10-15T06:20:52.105Z,8.89
2022-10-15T06:21:56.990Z,8.94
2022-10-15T06:23:05.007Z,8.97
2022-10-15T06:25:34.458Z,8.98
2022-10-15T06:26:04.771Z,8.97
2022-10-15T06:26:38.459Z,9.05
2022-10-15T06:27:44.932Z,9.12
2022-10-15T06:30:02.610Z,9.19
2022-10-15T06:31:14.540Z,9.22
2022-10-15T06:32:09.040Z,9.16
2022-10-15T06:32:15.256Z,9.25
2022-10-15T06:33:19.171Z,9.29
2022-10-15T06:34:25.710Z,9.33
2022-10-15T06:35:29.703Z,9.33
2022-10-15T06:36:33.753Z,9.39
2022-10-15T06:37:39.818Z,9.44
2022-10-15T06:38:45.222Z,9.49
2022-10-15T06:39:50.599Z,9.49
2022-10-15T06:40:56.614Z,9.59
2022-10-15T06:42:01.489Z,9.65
2022-10-15T06:43:11.796Z,9.66
2022-10-15T06:44:20.174Z,9.73
2022-10-15T06:45:24.047Z,9.77
2022-10-15T06:46:27.994Z,9.83
2022-10-15T06:47:32.096Z,9.87
2022-10-15T06:48:36.118Z,9.92
2022-10-15T06:49:40.019Z,9.97
2022-10-15T06:50:43.973Z,10.03
2022-10-15T06:51:47.837Z,10.05
2022-10-15T06:52:52.877Z,9.97
2022-10-15T06:54:04.086Z,10.17
2022-10-15T06:55:04.839Z,10.20
2022-10-15T06:56:10.363Z,10.24
2022-10-15T06:57:16.617Z,10.24
2022-10-15T06:58:20.533Z,10.36
2022-10-15T06:59:28.304Z,10.40
2022-10-15T07:01:41.346Z,10.44
2022-10-15T07:02:43.958Z,10.50
2022-10-15T07:04:12.660Z,10.51
2022-10-15T07:12:49.596Z,10.90
2022-10-15T07:13:55.202Z,10.93
2022-10-15T07:14:59.085Z,10.96
2022-10-15T07:16:08.235Z,11.02
2022-10-15T07:17:12.173Z,11.03
2022-10-15T07:18:17.673Z,11.05
2022-10-15T07:19:24.589Z,11.07
2022-10-15T07:20:33.552Z,11.08
2022-10-15T07:21:43.856Z,11.10
2022-10-15T07:23:06.398Z,11.13
2022-10-15T07:24:02.559Z,11.13
2022-10-15T07:25:09.317Z,11.17
2022-10-15T07:26:18.028Z,11.25
2022-10-15T07:28:53.685Z,11.27
2022-10-15T07:31:04.572Z,11.37
2022-10-15T07:32:38.913Z,11.39
2022-10-15T07:33:43.284Z,11.36
2022-10-15T07:34:52.061Z,11.37
2022-10-15T07:35:59.334Z,11.36
2022-10-15T07:37:03.262Z,11.40
2022-10-15T07:39:37.786Z,11.43
2022-10-15T07:40:40.461Z,11.45
2022-10-15T07:41:45.811Z,11.47
2022-10-15T07:44:14.169Z,11.54
2022-10-15T07:46:33.589Z,11.56
2022-10-15T09:22:51.148Z,12.56
2022-10-15T09:24:04.622Z,12.55
2022-10-15T09:25:11.692Z,12.58
2022-10-15T09:26:19.557Z,12.59
2022-10-15T09:27:35.157Z,12.62
2022-10-15T09:29:00.240Z,12.62
2022-10-15T09:30:28.429Z,12.68
2022-10-15T09:33:09.980Z,12.86
2022-10-15T09:34:22.819Z,12.75
2022-10-15T09:35:41.658Z,12.78
2022-10-15T09:36:59.208Z,12.82
2022-10-15T09:38:15.060Z,12.86
2022-10-15T09:39:34.005Z,12.86
2022-10-15T09:40:45.410Z,12.87
2022-10-15T09:41:55.007Z,12.86
2022-10-15T09:44:17.408Z,12.82
2022-10-15T09:47:26.594Z,12.84
2022-10-15T09:48:33.455Z,12.80
2022-10-15T09:49:39.775Z,12.83
2022-10-15T09:50:46.689Z,12.85
2022-10-15T09:52:01.546Z,12.87
2022-10-15T09:53:23.312Z,12.88
2022-10-15T09:55:03.753Z,12.88
2022-10-15T09:56:12.243Z,12.88
2022-10-15T09:57:18.749Z,12.82
2022-10-15T09:58:31.514Z,12.85
2022-10-15T09:59:34.013Z,12.82
2022-10-15T10:00:59.194Z,12.69
2022-10-15T10:02:14.715Z,12.82
2022-10-15T10:03:19.166Z,12.83
2022-10-15T10:04:24.628Z,12.84
2022-10-15T10:05:32.910Z,12.83
2022-10-15T10:06:42.669Z,12.83
2022-10-15T10:08:12.823Z,12.84
2022-10-15T10:10:29.019Z,12.84
2022-10-15T10:38:39.928Z,12.55
2022-10-15T10:39:43.964Z,12.56
2022-10-15T10:40:56.278Z,12.56
2022-10-15T10:42:05.750Z,12.57
2022-10-15T10:43:18.192Z,12.58
2022-10-15T10:44:25.066Z,12.59
2022-10-15T10:45:30.240Z,12.59
2022-10-15T10:46:34.316Z,12.62
2022-10-15T10:47:38.163Z,12.66
2022-10-15T10:51:27.800Z,12.70
2022-10-15T10:52:37.463Z,12.73
2022-10-15T10:54:02.628Z,12.75
2022-10-15T10:55:23.434Z,12.77
2022-10-15T10:56:42.716Z,12.78
2022-10-15T10:57:52.695Z,12.76
2022-10-15T10:59:02.376Z,12.77
2022-10-15T11:00:07.868Z,12.75
2022-10-15T11:01:14.019Z,12.75
2022-10-15T11:02:18.045Z,12.77
2022-10-15T11:03:37.176Z,12.77
2022-10-15T11:04:41.385Z,12.77
2022-10-15T11:05:49.763Z,12.75
2022-10-15T11:07:03.941Z,12.77
2022-10-15T11:08:28.610Z,12.77
2022-10-15T11:09:55.325Z,12.75
2022-10-15T11:11:09.391Z,12.74
2022-10-15T11:12:28.221Z,12.76
2022-10-15T11:13:55.856Z,12.76
2022-10-15T11:15:28.839Z,12.75
2022-10-15T11:16:43.871Z,12.78
2022-10-15T11:18:06.760Z,12.78
2022-10-15T11:19:50.269Z,12.78
2022-10-15T11:20:49.734Z,12.78
2022-10-15T11:21:52.474Z,12.78
2022-10-15T11:23:03.642Z,12.79
2022-10-15T11:24:20.733Z,12.78
2022-10-15T11:25:36.012Z,12.78
2022-10-15T11:27:09.838Z,12.76
2022-10-15T11:28:29.485Z,12.78
2022-10-15T11:29:55.119Z,12.75
2022-10-15T11:31:13.675Z,12.76
2022-10-15T11:33:01.679Z,12.75
2022-10-15T11:33:51.434Z,12.75
2022-10-15T11:35:51.587Z,12.78
2022-10-15T11:37:03.217Z,12.77
2022-10-15T11:38:32.342Z,12.77
2022-10-15T11:40:06.662Z,12.71
2022-10-15T11:41:18.673Z,12.71
2022-10-15T11:42:29.586Z,12.66
2022-10-15T11:43:54.224Z,12.68
2022-10-15T11:45:08.437Z,12.69
2022-10-15T11:46:44.227Z,12.68
2022-10-15T11:48:09.544Z,12.68
2022-10-15T11:49:31.187Z,12.69
2022-10-15T11:50:51.844Z,12.72
2022-10-15T13:49:07.604Z,12.39
2022-10-15T13:52:01.005Z,12.39
2022-10-15T13:53:19.981Z,12.38
2022-10-15T13:56:17.143Z,12.35
2022-10-15T13:57:21.048Z,12.37
2022-10-15T13:58:36.259Z,12.37
2022-10-15T13:59:41.670Z,12.37
2022-10-15T14:01:15.589Z,12.35
2022-10-15T14:02:19.690Z,12.35
2022-10-15T14:03:28.430Z,12.34
2022-10-15T14:04:42.520Z,12.31
2022-10-15T14:05:48.087Z,12.32
2022-10-15T14:06:58.203Z,12.29
2022-10-15T14:08:02.294Z,12.26
2022-10-15T14:09:26.108Z,12.25
2022-10-15T14:10:30.202Z,12.25
2022-10-15T14:11:35.376Z,12.24
2022-10-15T14:12:39.423Z,12.24
2022-10-15T14:13:55.459Z,12.21
2022-10-15T14:15:02.329Z,12.21
2022-10-15T14:16:15.783Z,12.21
2022-10-15T14:17:27.368Z,12.18
2022-10-15T14:18:43.082Z,12.16
2022-10-15T14:20:25.928Z,12.14
2022-10-15T14:21:14.010Z,12.14
2022-10-15T14:22:23.790Z,12.09
2022-10-15T14:23:28.520Z,12.08
2022-10-15T14:24:39.590Z,12.07
2022-10-15T14:25:43.792Z,12.05
2022-10-15T14:26:50.178Z,12.03
2022-10-15T14:27:55.791Z,12.01
2022-10-15T14:29:02.986Z,11.98
2022-10-15T14:30:11.905Z,11.98
2022-10-15T14:31:28.937Z,11.95
2022-10-15T14:32:47.199Z,11.93
2022-10-15T14:33:52.623Z,11.90
2022-10-15T14:34:59.661Z,11.88
2022-10-15T14:36:21.408Z,11.88
2022-10-15T14:37:40.569Z,11.82
2022-10-15T14:38:44.574Z,11.79
2022-10-15T14:39:51.266Z,11.74
2022-10-15T14:41:07.538Z,11.73
2022-10-15T14:42:28.637Z,11.71
2022-10-15T14:43:35.507Z,11.66
2022-10-15T14:44:47.748Z,11.62
2022-10-15T14:45:54.716Z,11.59
2022-10-15T14:47:03.560Z,11.55
2022-10-15T14:48:13.459Z,11.54
2022-10-15T14:49:26.463Z,11.49
2022-10-15T14:50:34.179Z,11.46
2022-10-15T14:51:38.278Z,11.43
2022-10-15T14:52:54.936Z,11.41
2022-10-15T14:54:01.225Z,11.41
2022-10-15T14:55:13.726Z,11.34
2022-10-15T14:56:23.065Z,11.31
2022-10-15T14:57:30.039Z,11.31
2022-10-15T14:58:34.151Z,11.28
2022-10-15T14:59:44.526Z,11.21
2022-10-15T15:00:47.920Z,11.17
2022-10-15T15:02:01.637Z,11.16
2022-10-15T15:03:05.576Z,11.12
2022-10-15T15:04:12.483Z,11.08
2022-10-15T15:05:19.364Z,11.06
2022-10-15T15:06:23.513Z,11.02
2022-10-15T15:07:27.468Z,10.98
2022-10-15T15:08:31.469Z,10.96
2022-10-15T15:09:35.345Z,10.94
2022-10-15T15:10:41.454Z,10.92
2022-10-15T15:11:45.019Z,10.89
2022-10-15T15:12:56.813Z,10.87
2022-10-15T15:14:02.258Z,10.87
2022-10-15T15:15:14.365Z,10.82
2022-10-15T15:16:20.570Z,10.77
2022-10-15T15:17:30.043Z,10.77
2022-10-15T15:18:34.037Z,10.73
2022-10-15T15:19:43.631Z,10.70
2022-10-15T15:20:45.881Z,10.67
2022-10-15T15:21:49.929Z,10.64
2022-10-15T15:24:08.406Z,10.57
2022-10-15T15:25:18.190Z,10.55
2022-10-15T15:26:22.200Z,10.53
2022-10-15T15:27:31.496Z,10.52
2022-10-15T15:28:35.494Z,10.52
2022-10-15T15:29:43.057Z,10.48
2022-10-15T15:30:49.102Z,10.45
2022-10-15T15:31:53.041Z,10.44
2022-10-15T15:32:58.696Z,10.41
2022-10-15T15:34:02.627Z,10.39
2022-10-15T15:35:27.279Z,10.37
2022-10-15T15:36:31.217Z,10.37
2022-10-15T16:14:16.565Z,9.60
2022-10-15T16:38:30.973Z,9.34
2022-10-15T16:41:12.770Z,9.33
2022-10-15T17:08:26.465Z,8.75
2022-10-15T17:14:34.485Z,8.75
2022-10-15T17:29:35.040Z,8.53
2022-10-15T17:31:19.132Z,8.53
2022-10-15T17:31:51.102Z,8.55
2022-10-15T17:35:54.130Z,8.57
2022-10-15T17:38:22.595Z,8.58
2022-10-15T17:39:26.366Z,8.58
2022-10-15T17:40:30.364Z,8.57
2022-10-15T17:41:35.612Z,8.59
2022-10-15T17:42:52.050Z,8.58
2022-10-15T17:43:51.344Z,8.57
2022-10-15T17:44:56.550Z,8.57
2022-10-15T17:46:05.200Z,8.58
2022-10-15T17:47:09.085Z,8.58
2022-10-15T17:48:13.037Z,8.56
2022-10-15T17:49:16.888Z,8.55
2022-10-15T17:50:22.405Z,8.53
2022-10-15T17:51:31.104Z,8.52
2022-10-15T17:52:35.035Z,8.54
2022-10-15T17:53:39.036Z,8.54
2022-10-15T17:54:42.872Z,8.54
2022-10-15T17:55:46.719Z,8.51
2022-10-15T17:56:51.106Z,8.51
2022-10-15T17:58:01.610Z,8.52
2022-10-15T17:59:07.213Z,8.50
2022-10-15T18:02:50.579Z,8.47
2022-10-15T18:03:56.314Z,8.44
2022-10-15T18:05:00.376Z,8.43
2022-10-15T18:06:12.725Z,8.41
2022-10-15T18:07:17.869Z,8.39
2022-10-15T18:08:23.406Z,8.38
2022-10-15T18:09:28.557Z,8.38
2022-10-15T18:10:32.507Z,8.34
2022-10-15T18:11:36.427Z,8.34
2022-10-15T18:12:40.278Z,8.33
2022-10-15T18:13:44.371Z,8.32
2022-10-15T18:14:48.354Z,8.30
2022-10-15T18:15:54.843Z,8.29
2022-10-15T18:16:58.842Z,8.29
2022-10-15T18:18:04.287Z,8.29
2022-10-15T18:19:08.178Z,8.28
2022-10-15T18:20:12.321Z,8.29
2022-10-15T18:21:18.588Z,8.27
2022-10-15T18:22:22.463Z,8.27
2022-10-15T18:23:26.393Z,8.24
2022-10-15T18:24:30.248Z,8.24
2022-10-15T18:25:34.244Z,8.25
2022-10-15T18:26:38.179Z,8.19
2022-10-15T18:27:43.670Z,8.18
2022-10-15T18:28:49.910Z,8.18
2022-10-15T18:29:53.836Z,8.17
2022-10-15T18:30:58.314Z,8.16
2022-10-15T18:32:03.888Z,8.14
2022-10-15T18:33:10.835Z,8.12
2022-10-15T18:34:15.373Z,8.12
2022-10-15T18:35:19.213Z,8.06
2022-10-15T18:36:25.887Z,8.05
2022-10-15T18:37:29.761Z,8.05
2022-10-15T18:38:33.944Z,8.00
2022-10-15T18:39:39.519Z,7.96
2022-10-15T18:40:45.002Z,7.94
2022-10-15T18:41:48.956Z,7.92
2022-10-15T18:42:54.575Z,7.90
2022-10-15T18:44:00.845Z,7.88
2022-10-15T18:45:05.110Z,7.87
2022-10-15T18:46:09.226Z,7.85
2022-10-15T18:47:13.191Z,7.83
2022-10-15T18:48:17.124Z,7.81
2022-10-15T18:49:21.622Z,7.80
2022-10-15T18:50:25.605Z,7.80
2022-10-15T18:51:30.294Z,7.76
2022-10-15T18:52:39.964Z,7.73
2022-10-15T18:53:40.400Z,7.73
2022-10-15T18:54:47.862Z,7.70
2022-10-15T18:55:51.502Z,7.70
2022-10-15T18:56:55.467Z,7.67
2022-10-15T18:57:59.381Z,7.67
2022-10-15T18:59:03.319Z,7.65
2022-10-15T19:00:10.537Z,7.63
2022-10-15T19:01:32.559Z,7.62
2022-10-15T19:02:36.648Z,7.59
2022-10-15T19:03:41.026Z,7.59
2022-10-15T19:04:44.888Z,7.61
2022-10-15T19:05:50.333Z,7.61
2022-10-15T19:06:55.119Z,7.48
2022-10-15T19:07:59.184Z,7.63
2022-10-15T19:09:05.607Z,7.64
2022-10-15T19:10:15.321Z,7.65
2022-10-15T19:11:17.970Z,7.66
2022-10-15T19:12:23.860Z,7.67
2022-10-15T19:13:28.022Z,7.68
2022-10-15T19:14:31.872Z,7.68
2022-10-15T19:15:38.605Z,7.68
2022-10-15T19:16:45.593Z,7.69
2022-10-15T19:17:51.205Z,7.69
2022-10-15T19:18:55.226Z,7.68
2022-10-15T19:19:59.255Z,7.68
2022-10-15T19:21:03.917Z,7.66
2022-10-15T19:22:09.467Z,7.66
2022-10-15T19:23:13.577Z,7.66
2022-10-15T19:24:20.031Z,7.67
2022-10-15T19:25:23.966Z,7.67
2022-10-15T19:26:28.373Z,7.66
2022-10-15T19:27:33.462Z,7.67
2022-10-15T19:28:38.528Z,7.67
2022-10-15T19:29:42.612Z,7.66
2022-10-15T19:30:55.027Z,7.65
2022-10-15T19:31:59.164Z,7.66
2022-10-15T19:33:09.401Z,7.64
2022-10-15T19:34:12.967Z,7.63
2022-10-15T19:35:16.936Z,7.62
2022-10-15T19:36:25.935Z,7.62
2022-10-15T19:37:32.270Z,7.61
2022-10-15T19:38:36.165Z,7.61
2022-10-15T19:39:45.177Z,5.19
2022-10-15T19:40:48.744Z,7.62
2022-10-15T19:41:52.567Z,7.59
2022-10-15T19:43:00.250Z,7.60
2022-10-15T19:44:04.907Z,7.58
2022-10-15T19:46:16.759Z,7.51
2022-10-15T19:47:21.921Z,7.49
2022-10-15T19:48:25.786Z,7.47
2022-10-15T19:49:29.679Z,7.43
2022-10-15T19:50:38.471Z,7.43
2022-10-15T19:51:42.854Z,7.41
2022-10-15T19:52:46.765Z,7.40
2022-10-15T19:53:55.699Z,7.34
2022-10-15T19:54:59.589Z,7.36
2022-10-15T19:56:06.936Z,7.36
2022-10-15T19:57:13.464Z,7.31
2022-10-15T19:58:21.161Z,7.31
2022-10-15T19:59:26.694Z,7.30
2022-10-15T20:00:30.718Z,7.28
2022-10-15T20:01:35.065Z,7.24
2022-10-15T20:02:39.078Z,7.24
2022-10-15T20:04:03.361Z,7.23
2022-10-15T20:06:21.530Z,7.17
2022-10-15T20:07:25.788Z,7.17
2022-10-15T20:08:30.930Z,7.14
2022-10-15T20:09:34.791Z,7.14
2022-10-15T20:10:42.653Z,7.13
2022-10-15T20:11:46.488Z,7.12
2022-10-15T20:12:50.354Z,7.12
2022-10-15T20:13:54.407Z,7.09
2022-10-15T20:14:58.268Z,7.08
2022-10-15T20:16:08.045Z,7.05
2022-10-15T20:17:13.395Z,7.03
2022-10-15T20:18:18.168Z,7.02
2022-10-15T20:19:22.093Z,7.03
2022-10-15T20:20:28.381Z,6.99
2022-10-15T20:21:32.790Z,6.99
2022-10-15T20:22:36.628Z,6.98
2022-10-15T20:23:42.106Z,6.97
2022-10-15T20:24:46.098Z,6.96
2022-10-15T20:25:49.992Z,6.96
2022-10-15T20:26:53.918Z,6.95
2022-10-15T20:27:57.894Z,6.95
2022-10-15T20:29:01.938Z,6.93
2022-10-15T20:30:07.817Z,6.93
2022-10-15T20:45:20.788Z,6.55
2022-10-15T20:46:33.340Z,6.54
2022-10-15T20:47:39.644Z,6.53
2022-10-15T20:48:45.953Z,6.52
2022-10-15T20:49:53.787Z,6.52
2022-10-15T20:50:59.007Z,6.50
2022-10-15T20:52:04.926Z,6.50
2022-10-15T20:53:08.829Z,6.49
2022-10-15T20:54:14.517Z,6.47
2022-10-15T20:55:18.490Z,6.48
2022-10-15T20:56:24.277Z,6.46
2022-10-15T20:57:28.241Z,6.47
2022-10-15T20:58:32.270Z,6.46
2022-10-15T20:59:37.884Z,6.46
2022-10-15T21:00:41.978Z,6.47
2022-10-15T21:01:45.899Z,6.46
2022-10-15T21:02:51.741Z,6.46
2022-10-15T21:03:57.318Z,6.43
2022-10-15T21:05:01.229Z,6.45
2022-10-15T21:06:05.242Z,6.44
2022-10-15T21:07:09.122Z,6.43
2022-10-15T21:08:13.023Z,6.42
2022-10-15T21:09:16.962Z,6.39
2022-10-15T21:10:20.918Z,6.37
2022-10-15T21:11:25.986Z,6.37
2022-10-15T21:12:29.882Z,6.37
2022-10-15T21:13:34.567Z,6.37
2022-10-15T21:14:40.253Z,6.35
2022-10-15T21:15:45.282Z,6.36
2022-10-15T21:16:50.875Z,6.35
2022-10-15T21:17:56.340Z,6.35
2022-10-15T21:19:00.191Z,6.35
2022-10-15T21:20:04.362Z,6.34
2022-10-15T21:21:13.712Z,6.34
2022-10-15T21:22:17.630Z,6.33
2022-10-15T21:23:21.633Z,6.33
2022-10-15T21:24:25.518Z,6.31
2022-10-15T21:25:29.468Z,6.31
2022-10-15T21:26:33.459Z,6.30
2022-10-15T21:27:37.311Z,6.26
2022-10-15T21:28:42.424Z,6.25
2022-10-15T21:29:46.556Z,6.24
2022-10-15T21:30:50.526Z,6.24
2022-10-15T21:31:54.942Z,6.24
2022-10-15T21:33:00.439Z,6.22
2022-10-15T21:34:04.318Z,6.22
2022-10-15T21:35:10.937Z,6.22
2022-10-15T21:36:20.807Z,6.20